Blue Mountain Lake, New York
Current Conditions -  °F | °C
As of 12:07 AM on Sunday 23 Nov 2014 (Local Time) from KSLK Reporting Station
Haze Haze  
Wind Chill: 28°   Ceiling: 400
Heat Index: 37°   Visibility: 2mi
Dew Point: 35°   Wind: 14mph
Humidity: 93%   Direction: 220°SW
Pressure: 29.9"   Gusts: NA
Location:  43.86°N, 74.44°W
Report Text: KSLK 230507Z AUTO 22012KT 2SM BR OVC004 03/02 A2990 RMK AO2 T00280017
Loading
Personal Weather Stations






























Interactive Weather Map New forecast layout! Learn more

10-Day Weather Forecast

Advertisements
Track Severe Weather on mobile